Time;durP1;ratioP1;P1;durP2;ratioP2;P2;SDS_P1;SDS_P2;PMS_P1;PMS_P2;Temp;Humidity;BMP_temperature;BMP_pressure;BME280_temperature;BME280_humidity;BME280_pressure;Samples;Min_cycle;Max_cycle;Signal;HPM_P1;HPM_P2
2022/12/18 00:00:29;;;;;;;70.13;36.22;;;;;;;;;;1047386;28;20021;-76
2022/12/18 00:01:00;;;;;;;62.25;32.40;;;;;;;;;;1043495;28;20486;-76
2022/12/18 00:01:32;;;;;;;62.95;31.92;;;;;;;;;;1038363;28;20045;-76
2022/12/18 00:02:03;;;;;;;64.88;33.33;;;;;;;;;;1039114;28;20037;-76
2022/12/18 00:02:34;;;;;;;70.22;35.55;;;;;;;;;;1039827;28;20479;-76
2022/12/18 00:03:04;;;;;;;54.42;32.05;;;;;;;;;;1044017;28;20039;-76
2022/12/18 00:03:35;;;;;;;72.57;35.95;;;;;;;;;;1047860;28;20028;-76
2022/12/18 00:04:07;;;;;;;64.38;33.20;;;;;;;;;;1043305;28;20017;-76
2022/12/18 00:04:38;;;;;;;58.28;31.52;;;;;;;;;;1043582;28;20116;-76
2022/12/18 00:05:08;;;;;;;64.25;36.25;;;;;;;;;;1043553;28;20024;-76
2022/12/18 00:05:46;;;;;;;50.38;31.77;;;;;;;;;;1043359;28;20033;-76
2022/12/18 00:06:17;;;;;;;63.25;32.72;;;;;;;;;;1042746;28;20080;-76
2022/12/18 00:06:47;;;;;;;63.45;33.83;;;;;;;;;;1043552;28;20124;-76
2022/12/18 00:07:18;;;;;;;51.40;30.27;;;;;;;;;;1043495;28;20476;-76
2022/12/18 00:07:48;;;;;;;55.35;30.88;;;;;;;;;;1043397;28;20032;-76
2022/12/18 00:08:19;;;;;;;68.07;30.33;;;;;;;;;;1043526;28;20039;-76
2022/12/18 00:08:50;;;;;;;62.65;33.33;;;;;;;;;;1043641;28;20021;-76
2022/12/18 00:09:21;;;;;;;55.88;29.98;;;;;;;;;;1048120;28;20104;-76
2022/12/18 00:09:52;;;;;;;60.85;31.73;;;;;;;;;;1046656;28;20019;-76
2022/12/18 00:10:22;;;;;;;66.93;34.67;;;;;;;;;;1048197;28;20024;-76
2022/12/18 00:10:53;;;;;;;58.72;31.23;;;;;;;;;;1043491;28;20025;-76
2022/12/18 00:11:25;;;;;;;61.35;32.35;;;;;;;;;;1040264;28;20047;-76
2022/12/18 00:11:56;;;;;;;71.68;32.45;;;;;;;;;;1040826;28;20081;-76
2022/12/18 00:12:27;;;;;;;63.72;29.83;;;;;;;;;;1042433;28;20028;-76
2022/12/18 00:12:57;;;;;;;53.15;29.77;;;;;;;;;;1043600;28;20032;-76
2022/12/18 00:13:28;;;;;;;59.60;30.83;;;;;;;;;;1043759;28;20024;-76
2022/12/18 00:13:59;;;;;;;57.22;29.10;;;;;;;;;;1047733;28;20118;-76
2022/12/18 00:14:29;;;;;;;56.03;28.00;;;;;;;;;;1047988;28;20103;-76
2022/12/18 00:15:00;;;;;;;47.88;28.88;;;;;;;;;;1047918;28;20021;-76
2022/12/18 00:15:33;;;;;;;54.08;29.30;;;;;;;;;;1043462;28;20469;-76
2022/12/18 00:16:04;;;;;;;50.58;28.77;;;;;;;;;;1043439;28;20021;-76
2022/12/18 00:16:35;;;;;;;65.15;29.67;;;;;;;;;;1043616;28;20082;-76
2022/12/18 00:17:05;;;;;;;57.70;29.77;;;;;;;;;;1043504;28;20120;-76
2022/12/18 00:17:36;;;;;;;50.50;25.50;;;;;;;;;;1043368;28;20539;-76
2022/12/18 00:18:06;;;;;;;67.30;30.92;;;;;;;;;;1043477;28;20017;-75
2022/12/18 00:18:37;;;;;;;55.67;28.02;;;;;;;;;;1043612;28;20108;-76
2022/12/18 00:19:08;;;;;;;47.22;25.73;;;;;;;;;;1047963;28;20017;-76
2022/12/18 00:19:39;;;;;;;54.03;29.35;;;;;;;;;;1043290;28;20021;-76
2022/12/18 00:20:10;;;;;;;57.60;29.05;;;;;;;;;;1043443;28;20056;-76
2022/12/18 00:20:40;;;;;;;48.05;27.08;;;;;;;;;;1043571;28;21308;-76
2022/12/18 00:21:12;;;;;;;49.17;26.75;;;;;;;;;;1043563;28;20053;-76
2022/12/18 00:21:43;;;;;;;49.67;26.02;;;;;;;;;;1047919;28;20060;-76
2022/12/18 00:22:13;;;;;;;53.90;27.65;;;;;;;;;;1047894;28;20395;-76
2022/12/18 00:22:44;;;;;;;49.85;22.58;;;;;;;;;;1048039;28;20025;-76
2022/12/18 00:23:14;;;;;;;49.30;27.35;;;;;;;;;;1047989;28;20028;-76
2022/12/18 00:23:45;;;;;;;45.33;24.52;;;;;;;;;;1043256;28;20044;-76
2022/12/18 00:24:16;;;;;;;44.85;25.45;;;;;;;;;;1043497;28;20027;-76
2022/12/18 00:24:46;;;;;;;42.60;25.30;;;;;;;;;;1043512;28;20567;-76
2022/12/18 00:25:17;;;;;;;49.45;25.40;;;;;;;;;;1043470;28;20068;-76
2022/12/18 00:25:47;;;;;;;47.85;26.42;;;;;;;;;;1043261;28;20021;-76
2022/12/18 00:26:23;;;;;;;50.10;25.75;;;;;;;;;;1043602;28;20025;-76
2022/12/18 00:26:53;;;;;;;54.88;27.02;;;;;;;;;;1042996;28;20053;-76
2022/12/18 00:27:24;;;;;;;47.08;23.90;;;;;;;;;;1043586;28;20035;-76
2022/12/18 00:27:55;;;;;;;40.88;21.95;;;;;;;;;;1043193;28;20392;-76
2022/12/18 00:28:25;;;;;;;58.35;27.17;;;;;;;;;;1043504;28;20021;-76
2022/12/18 00:28:59;;;;;;;52.33;25.67;;;;;;;;;;1043609;28;20394;-76
2022/12/18 00:29:30;;;;;;;39.63;22.77;;;;;;;;;;1043397;28;20508;-76
2022/12/18 00:30:01;;;;;;;52.00;27.90;;;;;;;;;;1047824;28;20020;-76
2022/12/18 00:30:31;;;;;;;53.20;24.63;;;;;;;;;;1047980;28;20024;-76
2022/12/18 00:31:03;;;;;;;43.90;25.23;;;;;;;;;;1048047;28;20028;-76
2022/12/18 00:31:34;;;;;;;51.47;24.38;;;;;;;;;;1047011;28;20074;-76
2022/12/18 00:32:05;;;;;;;52.97;27.55;;;;;;;;;;1047891;28;20070;-76
2022/12/18 00:32:35;;;;;;;49.53;26.67;;;;;;;;;;1047904;28;20415;-76
2022/12/18 00:33:06;;;;;;;45.92;24.40;;;;;;;;;;1048024;28;20384;-76
2022/12/18 00:33:37;;;;;;;51.67;26.88;;;;;;;;;;1047921;28;20052;-76
2022/12/18 00:34:09;;;;;;;55.58;26.52;;;;;;;;;;1043376;28;20009;-76
2022/12/18 00:34:40;;;;;;;54.55;27.88;;;;;;;;;;1041602;28;20116;-76
2022/12/18 00:35:11;;;;;;;50.85;25.35;;;;;;;;;;1041476;28;20032;-76
2022/12/18 00:35:41;;;;;;;51.33;28.80;;;;;;;;;;1041066;28;20032;-76
2022/12/18 00:36:17;;;;;;;54.65;26.27;;;;;;;;;;1043424;28;20131;-75
2022/12/18 00:36:47;;;;;;;38.58;25.42;;;;;;;;;;1043486;28;20520;-76
2022/12/18 00:37:18;;;;;;;43.67;25.10;;;;;;;;;;1044351;28;20052;-76
2022/12/18 00:37:48;;;;;;;46.47;26.25;;;;;;;;;;1047778;28;20380;-76
2022/12/18 00:38:19;;;;;;;49.63;26.77;;;;;;;;;;1047907;28;20111;-76
2022/12/18 00:38:50;;;;;;;51.72;24.70;;;;;;;;;;1047914;28;20029;-76
2022/12/18 00:39:20;;;;;;;48.38;26.60;;;;;;;;;;1043442;28;20040;-76
2022/12/18 00:39:51;;;;;;;52.10;27.00;;;;;;;;;;1043173;28;20491;-76
2022/12/18 00:40:21;;;;;;;54.38;28.20;;;;;;;;;;1043738;28;20519;-76
2022/12/18 00:40:52;;;;;;;64.00;28.73;;;;;;;;;;1043714;28;20610;-76
2022/12/18 00:43:00;;;;;;;66.72;29.52;;;;;;;;;;1047864;28;20511;-76
2022/12/18 00:43:34;;;;;;;56.80;30.38;;;;;;;;;;1047959;28;20025;-76
2022/12/18 00:44:05;;;;;;;61.92;27.73;;;;;;;;;;1047047;28;20081;-76
2022/12/18 00:44:35;;;;;;;54.15;30.17;;;;;;;;;;1046827;28;20035;-76
2022/12/18 00:45:06;;;;;;;62.53;32.30;;;;;;;;;;1047860;28;20070;-76
2022/12/18 00:45:37;;;;;;;62.28;30.65;;;;;;;;;;1043317;28;20100;-76
2022/12/18 00:46:07;;;;;;;82.03;40.38;;;;;;;;;;1042265;28;20067;-76
2022/12/18 00:46:38;;;;;;;83.38;39.40;;;;;;;;;;1043412;28;20021;-76
2022/12/18 00:47:09;;;;;;;77.53;35.63;;;;;;;;;;1043481;28;20020;-76
2022/12/18 00:47:40;;;;;;;92.97;39.42;;;;;;;;;;1042231;28;20550;-75
2022/12/18 00:48:10;;;;;;;88.20;38.42;;;;;;;;;;1043344;28;20029;-76
2022/12/18 00:48:41;;;;;;;90.68;39.53;;;;;;;;;;1043570;28;20391;-76
2022/12/18 00:49:13;;;;;;;85.55;36.60;;;;;;;;;;1043664;28;20400;-76
2022/12/18 00:49:43;;;;;;;73.55;37.42;;;;;;;;;;1047711;28;20020;-74
2022/12/18 00:50:14;;;;;;;77.85;40.47;;;;;;;;;;1047797;28;20519;-74
2022/12/18 00:50:45;;;;;;;93.25;39.55;;;;;;;;;;1047907;28;20025;-74
2022/12/18 00:51:15;;;;;;;86.18;38.53;;;;;;;;;;1047866;28;20016;-74
2022/12/18 00:51:46;;;;;;;90.80;37.58;;;;;;;;;;1047717;28;20073;-74
2022/12/18 00:52:16;;;;;;;95.47;40.60;;;;;;;;;;1047968;28;20024;-74
2022/12/18 00:52:47;;;;;;;88.90;37.60;;;;;;;;;;1047838;28;20035;-74
2022/12/18 00:53:18;;;;;;;72.85;36.70;;;;;;;;;;1043376;28;20036;-74
2022/12/18 00:53:48;;;;;;;85.18;39.78;;;;;;;;;;1043005;28;20024;-74
2022/12/18 00:54:19;;;;;;;93.88;43.45;;;;;;;;;;1043549;28;20062;-74
2022/12/18 00:54:49;;;;;;;114.25;50.67;;;;;;;;;;1043486;28;20032;-74
2022/12/18 00:55:20;;;;;;;116.97;46.55;;;;;;;;;;1047817;28;20028;-74
2022/12/18 00:55:50;;;;;;;106.05;46.65;;;;;;;;;;1047731;28;20020;-74
2022/12/18 00:56:21;;;;;;;108.97;46.60;;;;;;;;;;1047925;28;20032;-74
2022/12/18 00:56:51;;;;;;;106.55;46.50;;;;;;;;;;1047906;28;20029;-74
2022/12/18 00:57:22;;;;;;;128.20;52.97;;;;;;;;;;1048077;28;20024;-74
2022/12/18 00:57:53;;;;;;;101.70;47.60;;;;;;;;;;1043133;28;20028;-74
2022/12/18 00:58:23;;;;;;;114.35;48.63;;;;;;;;;;1043568;28;20057;-74
2022/12/18 00:58:54;;;;;;;117.43;51.58;;;;;;;;;;1042487;28;20489;-74
2022/12/18 00:59:24;;;;;;;118.63;55.42;;;;;;;;;;1043558;28;20535;-74
2022/12/18 00:59:55;;;;;;;126.20;54.95;;;;;;;;;;1047885;28;20028;-74
2022/12/18 01:00:25;;;;;;;146.57;65.35;;;;;;;;;;1046669;28;20024;-74
2022/12/18 01:00:56;;;;;;;137.18;63.38;;;;;;;;;;1048529;28;20025;-74
2022/12/18 01:01:26;;;;;;;132.68;63.47;;;;;;;;;;1048769;28;20473;-74
2022/12/18 01:01:57;;;;;;;152.90;63.25;;;;;;;;;;1043836;28;20055;-74
2022/12/18 01:02:27;;;;;;;125.32;57.92;;;;;;;;;;1044175;28;20036;-74
2022/12/18 01:02:58;;;;;;;134.13;58.05;;;;;;;;;;1044252;28;20058;-74
2022/12/18 01:03:28;;;;;;;123.90;59.58;;;;;;;;;;1042106;28;20029;-74
2022/12/18 01:04:00;;;;;;;146.52;60.20;;;;;;;;;;1043939;28;20021;-74
2022/12/18 01:04:34;;;;;;;144.18;63.92;;;;;;;;;;1041439;28;20025;-74
2022/12/18 01:05:04;;;;;;;149.20;59.58;;;;;;;;;;1042378;28;20025;-76
2022/12/18 01:05:38;;;;;;;135.20;62.70;;;;;;;;;;1044134;28;20028;-76
2022/12/18 01:06:11;;;;;;;141.27;67.05;;;;;;;;;;1044607;28;20027;-76
2022/12/18 01:06:42;;;;;;;150.63;67.00;;;;;;;;;;1048013;28;20020;-76
2022/12/18 01:07:12;;;;;;;144.43;64.63;;;;;;;;;;1044114;28;20017;-76
2022/12/18 01:07:43;;;;;;;142.30;62.13;;;;;;;;;;1044125;28;20021;-76
2022/12/18 01:08:13;;;;;;;127.65;62.45;;;;;;;;;;1044212;28;20025;-76
2022/12/18 01:08:44;;;;;;;138.38;63.28;;;;;;;;;;1044343;28;20055;-76
2022/12/18 01:09:14;;;;;;;130.50;65.25;;;;;;;;;;1048647;28;20032;-76
2022/12/18 01:09:45;;;;;;;116.70;58.40;;;;;;;;;;1048429;28;20016;-76
2022/12/18 01:10:15;;;;;;;139.38;57.78;;;;;;;;;;1048740;28;20553;-76
2022/12/18 01:10:46;;;;;;;131.57;60.83;;;;;;;;;;1046084;28;20025;-76
2022/12/18 01:11:18;;;;;;;132.45;61.00;;;;;;;;;;1044211;28;20027;-76
2022/12/18 01:11:48;;;;;;;100.18;55.45;;;;;;;;;;1043444;28;20056;-76
2022/12/18 01:12:19;;;;;;;143.93;65.07;;;;;;;;;;1044466;28;20446;-76
2022/12/18 01:12:49;;;;;;;129.57;60.20;;;;;;;;;;1044053;28;20503;-76
2022/12/18 01:13:20;;;;;;;136.50;61.08;;;;;;;;;;1043235;28;20120;-76
2022/12/18 01:13:52;;;;;;;122.55;56.97;;;;;;;;;;1044013;28;20025;-76
2022/12/18 01:14:22;;;;;;;125.95;58.70;;;;;;;;;;1044599;28;20496;-76
2022/12/18 01:14:53;;;;;;;129.85;61.50;;;;;;;;;;1048684;28;20024;-76
2022/12/18 01:15:23;;;;;;;142.75;62.17;;;;;;;;;;1048560;28;20063;-76
2022/12/18 01:15:54;;;;;;;128.63;59.45;;;;;;;;;;1043884;28;20083;-76
2022/12/18 01:16:24;;;;;;;125.53;56.00;;;;;;;;;;1042028;28;20571;-76
2022/12/18 01:16:55;;;;;;;132.07;59.30;;;;;;;;;;1041951;28;20078;-76
2022/12/18 01:17:25;;;;;;;126.30;59.22;;;;;;;;;;1039641;28;20029;-76
2022/12/18 01:17:56;;;;;;;122.72;56.13;;;;;;;;;;1042098;28;20044;-76
2022/12/18 01:18:26;;;;;;;131.75;57.72;;;;;;;;;;1044271;28;20108;-76
2022/12/18 01:18:57;;;;;;;127.85;56.95;;;;;;;;;;1044241;28;20020;-76
2022/12/18 01:19:28;;;;;;;123.30;57.55;;;;;;;;;;1044184;28;20017;-76
2022/12/18 01:19:58;;;;;;;123.53;57.08;;;;;;;;;;1043912;28;20025;-76
2022/12/18 01:20:29;;;;;;;125.75;53.97;;;;;;;;;;1044092;28;20078;-76
2022/12/18 01:20:59;;;;;;;136.35;58.20;;;;;;;;;;1044199;28;20032;-76
2022/12/18 01:21:30;;;;;;;109.50;52.85;;;;;;;;;;1044148;28;21241;-76
2022/12/18 01:22:00;;;;;;;122.57;56.42;;;;;;;;;;1044041;28;20037;-76
2022/12/18 01:22:31;;;;;;;114.30;52.05;;;;;;;;;;1048650;28;20418;-76
2022/12/18 01:23:02;;;;;;;133.23;52.88;;;;;;;;;;1044021;28;20492;-76
2022/12/18 01:23:32;;;;;;;119.78;50.53;;;;;;;;;;1043980;28;20020;-76
2022/12/18 01:24:03;;;;;;;115.47;51.13;;;;;;;;;;1044094;28;20028;-76
2022/12/18 01:24:33;;;;;;;121.25;55.75;;;;;;;;;;1044220;28;20468;-76
2022/12/18 01:25:05;;;;;;;116.25;53.15;;;;;;;;;;1048698;28;20427;-76
2022/12/18 01:25:36;;;;;;;108.95;49.92;;;;;;;;;;1043336;28;20024;-76
2022/12/18 01:26:07;;;;;;;131.05;55.17;;;;;;;;;;1039812;28;20489;-74
2022/12/18 01:26:38;;;;;;;111.65;52.50;;;;;;;;;;1039997;28;20021;-74
2022/12/18 01:27:08;;;;;;;113.05;50.75;;;;;;;;;;1039967;28;20509;-74
2022/12/18 01:27:39;;;;;;;101.55;51.28;;;;;;;;;;1044360;28;20431;-74
2022/12/18 01:28:09;;;;;;;114.10;48.45;;;;;;;;;;1048447;28;20631;-74
2022/12/18 01:28:41;;;;;;;113.22;52.45;;;;;;;;;;1048728;28;20028;-74
2022/12/18 01:29:11;;;;;;;122.30;52.20;;;;;;;;;;1043998;28;20036;-74
2022/12/18 01:29:42;;;;;;;119.07;51.08;;;;;;;;;;1043989;28;20064;-74
2022/12/18 01:30:12;;;;;;;121.25;52.85;;;;;;;;;;1044136;28;20180;-74
2022/12/18 01:30:43;;;;;;;131.27;54.30;;;;;;;;;;1044434;28;20516;-74
2022/12/18 01:31:24;;;;;;;118.78;55.55;;;;;;;;;;1048603;28;20021;-74
2022/12/18 01:31:55;;;;;;;132.73;57.92;;;;;;;;;;1048040;28;20046;-74
2022/12/18 01:32:25;;;;;;;108.18;50.45;;;;;;;;;;1044112;28;20025;-74
2022/12/18 01:32:56;;;;;;;116.53;50.35;;;;;;;;;;1043119;28;20057;-74
2022/12/18 01:33:26;;;;;;;125.75;55.50;;;;;;;;;;1044381;28;20021;-74
2022/12/18 01:33:57;;;;;;;126.82;56.38;;;;;;;;;;1044040;28;20021;-74
2022/12/18 01:34:28;;;;;;;114.43;53.83;;;;;;;;;;1047665;28;20099;-74
2022/12/18 01:34:58;;;;;;;133.27;59.85;;;;;;;;;;1048539;28;20111;-73
2022/12/18 01:35:29;;;;;;;135.10;54.47;;;;;;;;;;1048845;28;20032;-74
2022/12/18 01:35:59;;;;;;;113.55;55.28;;;;;;;;;;1047403;28;20044;-74
2022/12/18 01:36:31;;;;;;;131.77;57.20;;;;;;;;;;1048802;28;20024;-74
2022/12/18 01:37:02;;;;;;;110.93;53.55;;;;;;;;;;1051254;28;20044;-74
2022/12/18 01:37:33;;;;;;;129.82;57.42;;;;;;;;;;1053077;28;20052;-74
2022/12/18 01:38:04;;;;;;;127.57;53.33;;;;;;;;;;1052610;28;20017;-74
2022/12/18 01:38:34;;;;;;;116.57;52.55;;;;;;;;;;1052965;28;20050;-74
2022/12/18 01:39:06;;;;;;;120.50;57.38;;;;;;;;;;1048111;28;20021;-74
2022/12/18 01:39:37;;;;;;;137.77;55.90;;;;;;;;;;1046454;28;20478;-74
2022/12/18 01:40:07;;;;;;;116.47;56.88;;;;;;;;;;1047826;28;20024;-74
2022/12/18 01:40:38;;;;;;;128.85;55.85;;;;;;;;;;1048675;28;20024;-74
2022/12/18 01:41:09;;;;;;;112.15;53.33;;;;;;;;;;1052676;28;20032;-74
2022/12/18 01:42:29;;;;;;;136.02;54.50;;;;;;;;;;1052385;28;20092;-74
2022/12/18 01:42:59;;;;;;;117.13;53.33;;;;;;;;;;1049186;28;20024;-74
2022/12/18 01:43:59;;;;;;;105.82;49.50;;;;;;;;;;1048596;28;20058;-74
2022/12/18 01:44:48;;;;;;;103.07;49.83;;;;;;;;;;1031702;28;20121;-74
2022/12/18 01:45:19;;;;;;;113.72;52.47;;;;;;;;;;1048660;28;20468;-74
2022/12/18 01:45:49;;;;;;;104.55;49.92;;;;;;;;;;1048327;28;20035;-74
2022/12/18 01:46:21;;;;;;;123.13;53.40;;;;;;;;;;1044071;28;20024;-74
2022/12/18 01:46:54;;;;;;;120.40;51.50;;;;;;;;;;1043950;28;20455;-74
2022/12/18 01:47:46;;;;;;;110.80;51.22;;;;;;;;;;1040015;28;20025;-74
2022/12/18 01:48:16;;;;;;;107.53;48.17;;;;;;;;;;1041732;28;20017;-74
2022/12/18 01:48:49;;;;;;;111.18;50.60;;;;;;;;;;1044154;28;20016;-74
2022/12/18 01:49:19;;;;;;;125.40;48.97;;;;;;;;;;1047385;28;20064;-74
2022/12/18 01:49:50;;;;;;;102.85;48.35;;;;;;;;;;1048200;28;20021;-74
2022/12/18 01:50:20;;;;;;;110.20;50.78;;;;;;;;;;1048427;28;20028;-74
2022/12/18 01:50:51;;;;;;;113.28;52.75;;;;;;;;;;1043958;28;20012;-74
2022/12/18 01:51:21;;;;;;;114.70;52.58;;;;;;;;;;1044001;28;20116;-76
2022/12/18 01:51:52;;;;;;;99.80;49.22;;;;;;;;;;1043891;28;20025;-76
2022/12/18 01:52:23;;;;;;;114.18;54.15;;;;;;;;;;1044010;28;20017;-76
2022/12/18 01:53:03;;;;;;;117.38;51.28;;;;;;;;;;1043757;28;20029;-76
2022/12/18 01:53:34;;;;;;;116.72;51.75;;;;;;;;;;1043422;28;20025;-76
2022/12/18 01:54:04;;;;;;;116.40;52.55;;;;;;;;;;1044071;28;20029;-76
2022/12/18 01:54:35;;;;;;;136.70;50.65;;;;;;;;;;1045503;28;20124;-76
2022/12/18 01:55:06;;;;;;;110.15;51.08;;;;;;;;;;1043916;28;20111;-76
2022/12/18 01:55:41;;;;;;;120.35;53.90;;;;;;;;;;1043791;28;20091;-76
2022/12/18 01:56:13;;;;;;;114.18;51.42;;;;;;;;;;1043910;28;20617;-76
2022/12/18 01:56:43;;;;;;;122.53;54.20;;;;;;;;;;1042212;28;20460;-76
2022/12/18 01:57:14;;;;;;;131.32;51.05;;;;;;;;;;1039837;28;20096;-76
2022/12/18 01:57:46;;;;;;;125.65;48.55;;;;;;;;;;1039755;28;20025;-76
2022/12/18 01:58:16;;;;;;;111.60;51.22;;;;;;;;;;1038124;28;20022;-76
2022/12/18 01:58:53;;;;;;;105.30;50.80;;;;;;;;;;1040344;28;20030;-76
2022/12/18 01:59:24;;;;;;;122.13;50.88;;;;;;;;;;1042009;28;20508;-76
2022/12/18 01:59:57;;;;;;;111.53;48.90;;;;;;;;;;1042669;28;20025;-76
2022/12/18 02:00:27;;;;;;;104.90;49.42;;;;;;;;;;1039405;28;20025;-75
2022/12/18 02:00:58;;;;;;;119.18;49.80;;;;;;;;;;1038729;28;20564;-76
2022/12/18 02:01:29;;;;;;;110.75;51.22;;;;;;;;;;1040461;28;20029;-75
2022/12/18 02:02:00;;;;;;;108.28;51.35;;;;;;;;;;1039732;28;20095;-76
2022/12/18 02:02:31;;;;;;;112.28;50.65;;;;;;;;;;1044300;28;20025;-76
2022/12/18 02:03:01;;;;;;;135.57;52.78;;;;;;;;;;1048328;28;20013;-76
2022/12/18 02:03:32;;;;;;;114.13;52.03;;;;;;;;;;1048323;28;20472;-76
2022/12/18 02:04:21;;;;;;;115.93;51.05;;;;;;;;;;1043807;28;20021;-76
2022/12/18 02:04:51;;;;;;;119.13;51.33;;;;;;;;;;1042941;28;20464;-76
2022/12/18 02:05:42;;;;;;;118.65;53.58;;;;;;;;;;1041311;28;20029;-76
2022/12/18 02:06:16;;;;;;;113.45;48.10;;;;;;;;;;1033171;28;20669;-76
2022/12/18 02:06:50;;;;;;;104.45;46.40;;;;;;;;;;1044043;28;20484;-76
2022/12/18 02:07:30;;;;;;;88.82;45.75;;;;;;;;;;1047044;28;20020;-74
2022/12/18 02:08:13;;;;;;;123.13;54.65;;;;;;;;;;1047887;28;20017;-74
2022/12/18 02:08:58;;;;;;;115.45;50.03;;;;;;;;;;1047893;28;20025;-74
2022/12/18 02:09:34;;;;;;;116.75;50.17;;;;;;;;;;1048131;28;20017;-74
2022/12/18 02:10:04;;;;;;;139.00;55.50;;;;;;;;;;1043211;28;20017;-74
2022/12/18 02:10:42;;;;;;;110.10;53.20;;;;;;;;;;1043706;28;20028;-74
2022/12/18 02:11:24;;;;;;;130.30;51.47;;;;;;;;;;1043688;28;20103;-74
2022/12/18 02:12:07;;;;;;;111.30;52.20;;;;;;;;;;1046369;28;20029;-74
2022/12/18 02:12:56;;;;;;;95.80;48.83;;;;;;;;;;1048336;28;20017;-74
2022/12/18 02:13:33;;;;;;;105.40;48.63;;;;;;;;;;1048249;28;20077;-74
2022/12/18 02:14:22;;;;;;;95.28;44.55;;;;;;;;;;1047501;28;20050;-74
2022/12/18 02:15:00;;;;;;;108.53;44.85;;;;;;;;;;1042764;28;20130;-74
2022/12/18 02:15:33;;;;;;;96.00;45.75;;;;;;;;;;1043352;28;20460;-74
2022/12/18 02:16:21;;;;;;;103.55;49.20;;;;;;;;;;1041945;28;20119;-74
2022/12/18 02:16:56;;;;;;;110.25;49.47;;;;;;;;;;1042170;28;20017;-74
2022/12/18 02:17:34;;;;;;;104.60;51.80;;;;;;;;;;1043721;28;20467;-74
2022/12/18 02:18:11;;;;;;;87.57;43.58;;;;;;;;;;1047252;28;20020;-74
2022/12/18 02:18:44;;;;;;;100.90;48.05;;;;;;;;;;1047865;28;20506;-76
2022/12/18 02:19:20;;;;;;;104.70;50.40;;;;;;;;;;1048321;28;20033;-76
2022/12/18 02:19:57;;;;;;;100.47;50.83;;;;;;;;;;1043427;28;20025;-76
2022/12/18 02:20:30;;;;;;;118.45;49.80;;;;;;;;;;1043198;28;20052;-74
2022/12/18 02:21:08;;;;;;;109.80;50.55;;;;;;;;;;1042949;28;20021;-74
2022/12/18 02:21:57;;;;;;;94.18;45.63;;;;;;;;;;1043469;28;20067;-74
2022/12/18 02:22:39;;;;;;;122.97;50.13;;;;;;;;;;1043908;28;20052;-74
2022/12/18 02:23:13;;;;;;;102.72;50.22;;;;;;;;;;1043668;28;20021;-74
2022/12/18 02:23:47;;;;;;;102.78;46.33;;;;;;;;;;1048238;28;20460;-74
2022/12/18 02:24:24;;;;;;;105.25;48.17;;;;;;;;;;1048450;28;20380;-74
2022/12/18 02:25:13;;;;;;;112.15;48.67;;;;;;;;;;1047671;28;20024;-74
2022/12/18 02:26:07;;;;;;;90.05;44.47;;;;;;;;;;1048401;28;20081;-76
2022/12/18 02:26:41;;;;;;;98.85;42.40;;;;;;;;;;1043925;28;20021;-76
2022/12/18 02:27:12;;;;;;;110.45;48.85;;;;;;;;;;1039669;28;20029;-76
2022/12/18 02:27:45;;;;;;;105.88;47.47;;;;;;;;;;1039790;28;20025;-76
2022/12/18 02:28:19;;;;;;;108.60;49.30;;;;;;;;;;1040681;28;20072;-76
2022/12/18 02:28:53;;;;;;;97.00;45.88;;;;;;;;;;1044930;28;20024;-76
2022/12/18 02:29:27;;;;;;;103.90;48.63;;;;;;;;;;1048267;28;20392;-76
2022/12/18 02:29:59;;;;;;;123.40;48.03;;;;;;;;;;1048076;28;20074;-74
2022/12/18 02:30:32;;;;;;;102.47;47.05;;;;;;;;;;1048534;28;20042;-74
2022/12/18 02:31:04;;;;;;;102.43;43.75;;;;;;;;;;1043890;28;20575;-74
2022/12/18 02:31:37;;;;;;;101.93;46.72;;;;;;;;;;1039598;28;20025;-74
2022/12/18 02:32:11;;;;;;;102.95;48.38;;;;;;;;;;1039722;28;20111;-74
2022/12/18 02:32:45;;;;;;;100.75;49.22;;;;;;;;;;1037900;28;20021;-74
2022/12/18 02:33:16;;;;;;;112.40;45.05;;;;;;;;;;1041275;28;20021;-74
2022/12/18 02:33:49;;;;;;;99.05;44.85;;;;;;;;;;1039484;28;20032;-74
2022/12/18 02:34:22;;;;;;;95.75;45.60;;;;;;;;;;1040773;28;20028;-74
2022/12/18 02:34:54;;;;;;;89.97;43.08;;;;;;;;;;1041939;28;20022;-74
2022/12/18 02:35:26;;;;;;;89.97;44.13;;;;;;;;;;1042630;28;20025;-74
2022/12/18 02:35:58;;;;;;;105.20;43.92;;;;;;;;;;1043541;28;20114;-74
2022/12/18 02:36:29;;;;;;;101.78;47.65;;;;;;;;;;1042163;28;20221;-74
2022/12/18 02:37:03;;;;;;;112.95;47.35;;;;;;;;;;1043946;28;20020;-74
2022/12/18 02:37:35;;;;;;;118.15;45.90;;;;;;;;;;1039535;28;20504;-74
2022/12/18 02:38:06;;;;;;;105.68;47.55;;;;;;;;;;1036330;28;20026;-74
2022/12/18 02:38:36;;;;;;;118.20;47.88;;;;;;;;;;1039851;28;20057;-74
2022/12/18 02:39:09;;;;;;;98.25;45.65;;;;;;;;;;1040002;28;20068;-74
2022/12/18 02:39:41;;;;;;;114.43;48.65;;;;;;;;;;1039894;28;20017;-74
2022/12/18 02:40:13;;;;;;;105.88;44.67;;;;;;;;;;1042969;28;20032;-74
2022/12/18 02:40:44;;;;;;;100.13;47.30;;;;;;;;;;1043982;28;20017;-76
2022/12/18 02:41:16;;;;;;;100.55;44.33;;;;;;;;;;1044481;28;20107;-76
2022/12/18 02:41:47;;;;;;;92.18;41.53;;;;;;;;;;1047995;28;20086;-76
2022/12/18 02:42:18;;;;;;;97.97;37.80;;;;;;;;;;1048253;28;20418;-76
2022/12/18 02:42:49;;;;;;;89.05;39.35;;;;;;;;;;1047760;28;20047;-76
2022/12/18 02:43:19;;;;;;;86.45;35.67;;;;;;;;;;1048322;28;20099;-76
2022/12/18 02:43:54;;;;;;;101.18;38.58;;;;;;;;;;1048008;28;20181;-76
2022/12/18 02:44:25;;;;;;;82.05;36.90;;;;;;;;;;1048241;28;20025;-76
2022/12/18 02:44:56;;;;;;;108.28;40.53;;;;;;;;;;1048203;28;20432;-76
2022/12/18 02:45:26;;;;;;;81.15;39.40;;;;;;;;;;1043779;28;20427;-76
2022/12/18 02:45:58;;;;;;;86.93;40.55;;;;;;;;;;1043398;28;20017;-76
2022/12/18 02:46:28;;;;;;;70.20;35.17;;;;;;;;;;1043852;28;20017;-76
2022/12/18 02:46:59;;;;;;;76.15;36.88;;;;;;;;;;1043771;28;20056;-76
2022/12/18 02:47:32;;;;;;;73.25;36.97;;;;;;;;;;1044131;28;20037;-76
2022/12/18 02:48:03;;;;;;;69.70;35.95;;;;;;;;;;1046981;28;20062;-76
2022/12/18 02:48:35;;;;;;;73.88;40.25;;;;;;;;;;1048282;28;20016;-76
2022/12/18 02:49:11;;;;;;;68.68;36.10;;;;;;;;;;1043651;28;20454;-76
2022/12/18 02:49:41;;;;;;;69.80;36.40;;;;;;;;;;1043547;28;20124;-76
2022/12/18 02:50:12;;;;;;;73.53;33.55;;;;;;;;;;1043685;28;20035;-76
2022/12/18 02:50:46;;;;;;;70.45;36.75;;;;;;;;;;1043823;28;20025;-76
2022/12/18 02:51:26;;;;;;;77.72;37.15;;;;;;;;;;1043522;28;20049;-76
2022/12/18 02:52:09;;;;;;;78.30;35.08;;;;;;;;;;1047920;28;20450;-76
2022/12/18 02:53:01;;;;;;;76.90;35.30;;;;;;;;;;1047440;28;20474;-76
2022/12/18 02:53:42;;;;;;;82.00;34.67;;;;;;;;;;1047611;28;20013;-76
2022/12/18 02:54:19;;;;;;;78.40;35.75;;;;;;;;;;1048174;28;20060;-76
2022/12/18 02:54:49;;;;;;;78.25;35.88;;;;;;;;;;1043641;28;20024;-76
2022/12/18 02:55:20;;;;;;;74.45;33.58;;;;;;;;;;1043917;28;20171;-76
2022/12/18 02:56:09;;;;;;;71.95;34.88;;;;;;;;;;1043626;28;20495;-76
2022/12/18 02:56:44;;;;;;;86.05;36.58;;;;;;;;;;1046663;28;20029;-76
2022/12/18 02:57:19;;;;;;;65.20;35.60;;;;;;;;;;1047365;28;20017;-76
2022/12/18 02:58:08;;;;;;;67.88;33.00;;;;;;;;;;1047353;28;20027;-76
2022/12/18 02:58:41;;;;;;;92.50;35.17;;;;;;;;;;1047527;28;20021;-76
2022/12/18 02:59:23;;;;;;;71.78;33.78;;;;;;;;;;1047448;28;20476;-76
2022/12/18 03:00:00;;;;;;;85.68;36.58;;;;;;;;;;1048070;28;20024;-76
2022/12/18 03:00:43;;;;;;;68.78;34.80;;;;;;;;;;1047464;28;20025;-76
2022/12/18 03:01:22;;;;;;;92.13;37.42;;;;;;;;;;1048200;28;20055;-76
2022/12/18 03:02:06;;;;;;;91.25;40.80;;;;;;;;;;1047757;28;20077;-76
2022/12/18 03:02:47;;;;;;;89.50;39.03;;;;;;;;;;1047227;28;20068;-75
2022/12/18 03:03:17;;;;;;;88.55;39.42;;;;;;;;;;1048003;28;20440;-76
2022/12/18 03:03:52;;;;;;;79.57;37.38;;;;;;;;;;1047898;28;20065;-76
2022/12/18 03:04:29;;;;;;;87.50;40.47;;;;;;;;;;1043588;28;20547;-76
2022/12/18 03:05:07;;;;;;;80.60;40.80;;;;;;;;;;1042732;28;20478;-76
2022/12/18 03:05:56;;;;;;;102.43;43.25;;;;;;;;;;1041383;28;20029;-74
2022/12/18 03:06:28;;;;;;;93.97;43.28;;;;;;;;;;1043808;28;20099;-74
2022/12/18 03:07:01;;;;;;;89.57;43.00;;;;;;;;;;1043753;28;20021;-74
2022/12/18 03:07:37;;;;;;;98.00;44.03;;;;;;;;;;1047310;28;20031;-74
2022/12/18 03:08:17;;;;;;;87.35;41.00;;;;;;;;;;1047652;28;20028;-74
2022/12/18 03:08:50;;;;;;;87.72;39.17;;;;;;;;;;1047526;28;20396;-74
2022/12/18 03:09:24;;;;;;;100.78;43.60;;;;;;;;;;1043615;28;20083;-74
2022/12/18 03:09:56;;;;;;;104.00;45.00;;;;;;;;;;1041714;28;20109;-74
2022/12/18 03:10:28;;;;;;;92.50;40.72;;;;;;;;;;1041892;28;20029;-74
2022/12/18 03:11:01;;;;;;;95.38;43.78;;;;;;;;;;1041670;28;20048;-74
2022/12/18 03:12:28;;;;;;;83.55;38.85;;;;;;;;;;1043822;28;20448;-73
2022/12/18 03:13:19;;;;;;;73.40;38.72;;;;;;;;;;1043408;28;20033;-74
2022/12/18 03:13:52;;;;;;;86.00;42.78;;;;;;;;;;1042554;28;20028;-74